Time;durP1;ratioP1;P1;durP2;ratioP2;P2;SDS_P1;SDS_P2;PMS_P1;PMS_P2;Temp;Humidity;BMP_temperature;BMP_pressure;BME280_temperature;BME280_humidity;BME280_pressure;Samples;Min_cycle;Max_cycle;Signal;HPM_P1;HPM_P2
2022/11/03 00:00:50;;;;;;;11.68;3.92;;;;;;;10.03;72.54;101066.22;4136877;28;20467;-63
2022/11/03 00:02:53;;;;;;;13.38;4.57;;;;;;;10.07;72.29;101058.53;4157846;28;20084;-63
2022/11/03 00:04:56;;;;;;;10.40;4.47;;;;;;;10.08;72.94;101059.44;4163632;28;20045;-63
2022/11/03 00:06:57;;;;;;;9.25;3.85;;;;;;;10.08;72.73;101052.50;4153679;28;20444;-63
2022/11/03 00:09:02;;;;;;;12.90;4.20;;;;;;;10.11;72.97;101055.19;4155010;28;20033;-63
2022/11/03 00:11:09;;;;;;;16.35;4.35;;;;;;;10.10;72.46;101052.56;4143268;28;20096;-63
2022/11/03 00:13:12;;;;;;;12.93;4.63;;;;;;;10.05;72.50;101056.75;4149536;28;20064;-63
2022/11/03 00:15:14;;;;;;;8.40;3.80;;;;;;;10.01;72.40;101054.91;4148939;28;20038;-63
2022/11/03 00:17:17;;;;;;;6.90;3.05;;;;;;;10.01;72.57;101057.50;4161190;28;20388;-63
2022/11/03 00:19:20;;;;;;;12.38;4.85;;;;;;;9.98;72.56;101050.50;4166117;28;20038;-62
2022/11/03 00:21:23;;;;;;;16.90;4.65;;;;;;;9.96;72.15;101050.47;4156234;28;20038;-63
2022/11/03 00:23:28;;;;;;;12.95;3.80;;;;;;;9.95;72.45;101043.50;4161108;28;20029;-63
2022/11/03 00:25:31;;;;;;;14.23;4.13;;;;;;;9.98;72.37;101036.66;4165544;28;20553;-63
2022/11/03 00:27:35;;;;;;;13.48;4.38;;;;;;;10.00;72.80;101035.84;4149564;28;20505;-63
2022/11/03 00:29:38;;;;;;;12.85;4.03;;;;;;;9.98;72.78;101039.25;4164029;28;20384;-62
2022/11/03 00:31:42;;;;;;;12.25;4.10;;;;;;;9.99;72.27;101031.50;4148362;28;20100;-62
2022/11/03 00:33:46;;;;;;;13.88;4.30;;;;;;;10.00;72.74;101025.44;4148173;28;20656;-63
2022/11/03 00:35:48;;;;;;;15.73;3.97;;;;;;;9.99;72.33;101018.50;4148068;28;20065;-62
2022/11/03 00:37:51;;;;;;;13.38;4.05;;;;;;;9.99;72.27;101013.31;4141643;28;20408;-63
2022/11/03 00:39:54;;;;;;;13.05;3.88;;;;;;;10.01;71.63;101005.56;4149343;28;20455;-63
2022/11/03 00:41:57;;;;;;;13.07;4.07;;;;;;;9.97;71.90;101009.78;4148067;28;20050;-63
2022/11/03 00:44:01;;;;;;;9.82;3.92;;;;;;;9.94;71.74;101002.81;4146775;28;20471;-63
2022/11/03 00:46:06;;;;;;;12.85;3.20;;;;;;;9.88;72.76;101005.22;4143310;28;20045;-63
2022/11/03 00:50:29;;;;;;;8.57;3.33;;;;;;;9.84;71.83;101002.53;4154585;28;20042;-63
2022/11/03 00:52:32;;;;;;;9.30;3.78;;;;;;;9.87;72.11;100994.81;4170358;28;20072;-63
2022/11/03 00:54:35;;;;;;;13.55;3.55;;;;;;;9.85;72.48;100999.97;4156888;28;20045;-64
2022/11/03 00:56:40;;;;;;;14.18;3.88;;;;;;;9.83;72.90;101000.75;4148801;28;20088;-63
2022/11/03 00:58:43;;;;;;;9.45;3.83;;;;;;;9.81;72.35;100997.25;4157167;28;20423;-63
2022/11/03 01:00:48;;;;;;;9.00;3.10;;;;;;;9.83;72.33;101003.34;4146103;28;20046;-63
2022/11/03 01:02:51;;;;;;;11.98;4.30;;;;;;;9.84;72.28;101002.53;4154741;28;20043;-63
2022/11/03 01:07:14;;;;;;;11.20;3.45;;;;;;;9.77;72.37;101007.56;4147556;28;20037;-63
2022/11/03 01:09:17;;;;;;;13.50;3.70;;;;;;;9.77;72.64;101004.09;4145607;28;20064;-63
2022/11/03 01:13:43;;;;;;;13.38;3.55;;;;;;;9.78;72.19;101000.66;4155015;28;20041;-63
2022/11/03 01:15:47;;;;;;;9.88;3.80;;;;;;;9.80;72.67;100986.00;4160176;28;20065;-63
2022/11/03 01:17:50;;;;;;;11.07;3.28;;;;;;;9.78;72.03;100985.97;4139580;28;20045;-63
2022/11/03 01:19:53;;;;;;;11.60;3.85;;;;;;;9.75;72.34;100985.00;4160988;28;20571;-63
2022/11/03 01:21:56;;;;;;;11.07;3.85;;;;;;;9.74;72.63;100986.72;4147489;28;20130;-63
2022/11/03 01:24:00;;;;;;;9.40;3.30;;;;;;;9.77;72.82;100986.78;4147506;28;20034;-63
2022/11/03 01:26:04;;;;;;;12.82;3.67;;;;;;;9.76;72.69;100990.22;4149365;28;20092;-63
2022/11/03 01:28:07;;;;;;;13.00;4.22;;;;;;;9.77;72.40;100989.38;4158402;28;20045;-63
2022/11/03 01:30:11;;;;;;;8.95;3.67;;;;;;;9.79;72.33;100985.09;4140348;28;20064;-63
2022/11/03 01:32:15;;;;;;;12.10;3.47;;;;;;;9.87;72.08;100993.13;4149769;28;20041;-63
2022/11/03 01:34:20;;;;;;;10.73;3.25;;;;;;;9.86;72.33;100987.88;4144725;28;20491;-63
2022/11/03 01:36:23;;;;;;;14.82;4.30;;;;;;;9.83;72.76;100987.78;4137498;28;20073;-63
2022/11/03 01:38:26;;;;;;;8.35;3.25;;;;;;;9.82;72.42;100980.84;4143296;28;20034;-63
2022/11/03 01:40:29;;;;;;;11.25;3.85;;;;;;;9.84;73.05;100980.06;4146477;28;20038;-63
2022/11/03 01:42:32;;;;;;;8.65;3.13;;;;;;;9.82;72.98;100978.25;4146225;28;20492;-63
2022/11/03 01:44:36;;;;;;;9.43;3.25;;;;;;;9.81;73.04;100971.28;4146070;28;20038;-63
2022/11/03 01:46:42;;;;;;;7.95;2.80;;;;;;;9.78;73.17;100965.19;4146272;28;20033;-63
2022/11/03 01:48:53;;;;;;;14.25;3.78;;;;;;;9.82;72.61;100965.25;4140718;28;20030;-63
2022/11/03 01:50:56;;;;;;;8.80;3.10;;;;;;;9.77;73.05;100960.81;4142708;28;20399;-63
2022/11/03 01:52:59;;;;;;;7.93;2.80;;;;;;;9.75;72.57;100954.72;4155899;28;20084;-63
2022/11/03 01:55:07;;;;;;;9.52;3.13;;;;;;;9.77;72.91;100955.63;4150953;28;20096;-63
2022/11/03 01:57:15;;;;;;;11.20;4.32;;;;;;;9.81;72.44;100956.56;4145660;28;20451;-63
2022/11/03 01:59:20;;;;;;;9.75;3.47;;;;;;;9.81;72.83;100945.31;4148251;28;20499;-63
2022/11/03 02:01:23;;;;;;;10.07;3.33;;;;;;;9.74;73.24;100949.50;4145766;28;20484;-63
2022/11/03 02:03:31;;;;;;;10.70;3.92;;;;;;;9.77;72.83;100945.25;4162376;28;20045;-63
2022/11/03 02:05:36;;;;;;;12.05;3.20;;;;;;;9.75;72.93;100941.75;4146892;28;20046;-63
2022/11/03 02:07:46;;;;;;;8.38;3.38;;;;;;;9.75;72.79;100933.97;4157930;28;20049;-63
2022/11/03 02:09:49;;;;;;;12.98;3.95;;;;;;;9.79;72.85;100922.78;4145181;28;20382;-63
2022/11/03 02:12:06;;;;;;;17.42;4.03;;;;;;;9.78;72.97;100927.94;4147069;28;20455;-63
2022/11/03 02:14:12;;;;;;;12.02;2.75;;;;;;;9.75;72.92;100926.16;4142663;28;20132;-63
2022/11/03 02:16:15;;;;;;;14.98;3.30;;;;;;;9.73;73.34;100922.63;4147155;28;20046;-63
2022/11/03 02:18:21;;;;;;;10.93;3.42;;;;;;;9.75;72.96;100920.06;4146494;28;20038;-63
2022/11/03 02:20:26;;;;;;;10.98;3.58;;;;;;;9.77;73.35;100921.88;4137038;28;20042;-63
2022/11/03 02:22:48;;;;;;;9.15;3.05;;;;;;;9.81;73.11;100916.75;4148029;28;20041;-63
2022/11/03 02:24:53;;;;;;;13.70;3.85;;;;;;;9.79;73.01;100912.41;4140458;28;20030;-63
2022/11/03 02:26:57;;;;;;;11.65;4.13;;;;;;;9.77;73.22;100908.91;4146297;28;20479;-63
2022/11/03 02:29:00;;;;;;;14.32;4.10;;;;;;;9.78;73.39;100904.56;4146449;28;20038;-62
2022/11/03 02:31:10;;;;;;;11.10;3.90;;;;;;;9.79;73.43;100901.16;4143579;28;20041;-63
2022/11/03 02:33:25;;;;;;;8.30;2.95;;;;;;;9.82;72.99;100896.03;4160024;28;20045;-63
2022/11/03 02:35:31;;;;;;;;;;;;;;;9.66;73.52;100892.16;4156832;28;20029;-63
2022/11/03 02:37:36;;;;;;;9.60;3.40;;;;;;;9.65;73.41;100886.94;4163534;28;20383;-62
2022/11/03 02:39:43;;;;;;;10.52;3.83;;;;;;;9.71;73.79;100892.28;4146464;28;20381;-62
2022/11/03 02:41:48;;;;;;;7.00;3.03;;;;;;;9.71;73.62;100884.50;4155342;28;20072;-62
2022/11/03 02:43:54;;;;;;;11.10;3.88;;;;;;;9.76;73.61;100875.97;4147420;28;20072;-62
2022/11/03 02:45:57;;;;;;;11.55;3.10;;;;;;;9.78;73.81;100879.50;4146580;28;20041;-62
2022/11/03 02:48:02;;;;;;;9.65;3.10;;;;;;;9.81;73.53;100870.03;4154585;28;20099;-62
2022/11/03 02:50:09;;;;;;;9.63;3.55;;;;;;;9.81;73.46;100864.81;4152699;28;20104;-63
2022/11/03 02:52:34;;;;;;;9.25;3.30;;;;;;;9.77;73.45;100864.75;4142085;28;20062;-62
2022/11/03 02:54:42;;;;;;;13.73;4.15;;;;;;;9.80;73.05;100863.97;4145749;28;20041;-62
2022/11/03 02:56:52;;;;;;;12.63;2.90;;;;;;;9.83;73.14;100860.53;4156666;28;20041;-62
2022/11/03 02:59:01;;;;;;;10.43;3.53;;;;;;;9.86;73.28;100851.13;4135264;28;20030;-62
2022/11/03 03:01:17;;;;;;;13.20;3.67;;;;;;;9.89;72.79;100855.50;4146589;28;20088;-62
2022/11/03 03:03:25;;;;;;;8.30;3.42;;;;;;;9.86;72.64;100851.13;4154468;28;20117;-62
2022/11/03 03:05:31;;;;;;;16.73;4.15;;;;;;;9.87;72.77;100842.50;4151766;28;20068;-63
2022/11/03 03:07:37;;;;;;;10.27;3.33;;;;;;;9.84;73.36;100838.94;4157605;28;20396;-62
2022/11/03 03:09:51;;;;;;;13.18;2.90;;;;;;;9.87;72.70;100844.19;4147305;28;20495;-63
2022/11/03 03:11:57;;;;;;;10.63;3.53;;;;;;;9.89;73.12;100837.34;4152589;28;20085;-62
2022/11/03 03:14:01;;;;;;;14.38;3.63;;;;;;;9.88;72.55;100835.56;4147068;28;20109;-62
2022/11/03 03:16:11;;;;;;;10.98;3.35;;;;;;;9.86;72.92;100839.88;4164176;28;20037;-62
2022/11/03 03:18:23;;;;;;;14.25;4.78;;;;;;;9.89;72.74;100834.72;4157627;28;20125;-62
2022/11/03 03:20:32;;;;;;;7.20;2.70;;;;;;;9.89;72.85;100837.34;4146067;28;20034;-62
2022/11/03 03:22:39;;;;;;;12.55;3.53;;;;;;;9.91;72.76;100835.63;4154104;28;20041;-62
2022/11/03 03:24:50;;;;;;;8.23;3.92;;;;;;;9.91;73.13;100828.72;4156982;28;20048;-63
2022/11/03 03:26:58;;;;;;;11.45;3.80;;;;;;;9.88;73.08;100823.44;4149290;28;20088;-62
2022/11/03 03:29:07;;;;;;;16.55;3.80;;;;;;;9.89;72.91;100820.03;4166844;28;20100;-62
2022/11/03 03:31:14;;;;;;;10.25;3.55;;;;;;;9.85;73.09;100807.81;4142173;28;20041;-62
2022/11/03 03:33:18;;;;;;;12.30;3.13;;;;;;;9.83;72.76;100811.19;4146412;28;20569;-62
2022/11/03 03:35:24;;;;;;;12.38;3.40;;;;;;;9.80;73.20;100814.63;4149073;28;20450;-62
2022/11/03 03:37:29;;;;;;;10.93;3.30;;;;;;;9.80;73.11;100812.03;4160072;28;20530;-62
2022/11/03 03:39:36;;;;;;;8.32;3.13;;;;;;;9.81;73.27;100805.09;4158900;28;20050;-62
2022/11/03 03:41:40;;;;;;;8.00;3.03;;;;;;;9.81;73.35;100805.97;4154407;28;20042;-62
2022/11/03 03:43:43;;;;;;;8.55;2.80;;;;;;;9.81;73.65;100794.72;4153591;28;20038;-62
2022/11/03 03:45:51;;;;;;;11.38;3.40;;;;;;;9.84;73.53;100787.88;4142239;28;20088;-62
2022/11/03 03:47:55;;;;;;;11.48;3.45;;;;;;;9.82;72.96;100799.06;4150841;28;20042;-62
2022/11/03 03:50:05;;;;;;;9.20;3.15;;;;;;;9.82;73.40;100796.47;4156603;28;20408;-62
2022/11/03 03:52:09;;;;;;;12.32;3.58;;;;;;;9.82;73.00;100799.06;4148786;28;20046;-62
2022/11/03 03:54:11;;;;;;;11.02;3.40;;;;;;;9.82;73.23;100786.09;4152308;28;20041;-62
2022/11/03 03:56:15;;;;;;;11.20;3.30;;;;;;;9.85;73.44;100791.34;4154495;28;20037;-62
2022/11/03 03:58:18;;;;;;;9.63;3.17;;;;;;;9.82;72.77;100780.91;4160722;28;20064;-62
2022/11/03 04:00:21;;;;;;;11.75;3.83;;;;;;;9.85;72.96;100786.16;4152942;28;20159;-62
2022/11/03 04:02:25;;;;;;;5.78;3.00;;;;;;;9.82;73.14;100780.91;4151147;28;20499;-62
2022/11/03 04:04:28;;;;;;;11.80;4.03;;;;;;;9.80;73.83;100783.47;4131935;28;20066;-62
2022/11/03 04:06:31;;;;;;;11.38;4.43;;;;;;;9.78;73.72;100785.13;4134304;28;20050;-62
2022/11/03 04:08:34;;;;;;;9.82;2.90;;;;;;;9.79;73.33;100779.09;4147356;28;20049;-62
2022/11/03 04:10:37;;;;;;;14.18;3.45;;;;;;;9.79;73.50;100776.50;4148638;28;20042;-63
2022/11/03 04:22:16;;;;;;;11.93;3.45;;;;;;;9.75;73.71;100766.88;4150829;28;20045;-63
2022/11/03 04:24:19;;;;;;;6.53;3.22;;;;;;;9.68;73.94;100768.50;4161600;28;20044;-63
2022/11/03 04:26:22;;;;;;;10.77;2.90;;;;;;;9.68;73.57;100773.69;4148162;28;20038;-63
2022/11/03 04:28:26;;;;;;;8.02;3.05;;;;;;;9.69;73.83;100770.22;4146803;28;20531;-62
2022/11/03 04:30:28;;;;;;;12.68;4.00;;;;;;;9.70;74.13;100766.78;4149020;28;20052;-63
2022/11/03 04:32:32;;;;;;;11.98;3.40;;;;;;;9.68;74.07;100763.31;4154311;28;20049;-62
2022/11/03 04:34:37;;;;;;;7.38;2.92;;;;;;;9.65;73.97;100758.03;4162140;28;20029;-62
2022/11/03 04:36:41;;;;;;;6.45;2.75;;;;;;;9.67;73.69;100761.53;4148644;28;20030;-62
2022/11/03 04:38:45;;;;;;;6.72;3.03;;;;;;;9.68;73.88;100755.50;4148655;28;20092;-62
2022/11/03 04:40:50;;;;;;;10.02;3.67;;;;;;;9.68;74.18;100747.72;4146491;28;20033;-62
2022/11/03 04:42:57;;;;;;;16.77;4.63;;;;;;;9.67;73.77;100743.38;4142941;28;20504;-62
2022/11/03 04:45:02;;;;;;;7.57;3.00;;;;;;;9.66;73.87;100743.34;4148612;28;20046;-62
2022/11/03 04:47:09;;;;;;;9.65;3.40;;;;;;;9.66;73.57;100745.94;4140374;28;20655;-62
2022/11/03 04:49:20;;;;;;;11.45;3.20;;;;;;;9.66;73.96;100748.53;4164534;28;20118;-62
2022/11/03 04:51:26;;;;;;;8.25;2.65;;;;;;;9.63;74.07;100746.72;4162314;28;20491;-63
2022/11/03 04:53:32;;;;;;;8.88;3.15;;;;;;;9.61;73.98;100740.63;4165239;28;20124;-63
2022/11/03 04:55:35;;;;;;;8.73;3.20;;;;;;;9.59;73.75;100739.72;4157107;28;20038;-63
2022/11/03 04:57:39;;;;;;;13.50;3.67;;;;;;;9.61;74.07;100740.63;4150250;28;20037;-62
2022/11/03 04:59:44;;;;;;;9.70;3.20;;;;;;;9.55;73.54;100736.19;4156330;28;20112;-63
2022/11/03 05:01:47;;;;;;;11.63;3.42;;;;;;;9.53;74.09;100745.63;4146838;28;20041;-62
2022/11/03 05:03:53;;;;;;;6.93;3.28;;;;;;;9.54;74.02;100739.59;4151692;28;20119;-62
2022/11/03 05:05:56;;;;;;;9.10;2.80;;;;;;;9.56;73.93;100731.84;4142770;28;20120;-62
2022/11/03 05:07:59;;;;;;;8.02;2.65;;;;;;;9.56;73.99;100724.06;4148670;28;20496;-62
2022/11/03 05:10:05;;;;;;;7.55;3.25;;;;;;;9.58;74.20;100725.88;4150554;28;20034;-62
2022/11/03 05:12:09;;;;;;;7.97;3.22;;;;;;;9.58;73.64;100727.59;4131070;28;20084;-62
2022/11/03 05:14:15;;;;;;;8.48;3.03;;;;;;;9.58;73.93;100717.22;4157703;28;20533;-62
2022/11/03 05:16:18;;;;;;;10.25;3.65;;;;;;;9.61;73.56;100714.69;4154243;28;20120;-62
2022/11/03 05:18:26;;;;;;;9.35;3.33;;;;;;;9.60;73.65;100708.59;4142556;28;20045;-62
2022/11/03 05:20:34;;;;;;;6.88;2.83;;;;;;;9.61;73.65;100705.16;4154269;28;20407;-62
2022/11/03 05:22:38;;;;;;;8.25;3.30;;;;;;;9.61;73.81;100699.09;4146389;28;20035;-62
2022/11/03 05:24:41;;;;;;;12.68;3.42;;;;;;;9.60;73.94;100702.53;4141320;28;20041;-62
2022/11/03 05:26:45;;;;;;;11.30;3.33;;;;;;;9.58;73.67;100702.50;4139796;28;20111;-62
2022/11/03 05:28:52;;;;;;;7.15;2.75;;;;;;;9.55;73.82;100704.13;4122058;28;20042;-61
2022/11/03 05:30:55;;;;;;;8.40;2.80;;;;;;;9.47;74.42;100701.38;4141130;28;20037;-62
2022/11/03 05:32:58;;;;;;;8.27;4.03;;;;;;;9.49;74.27;100704.00;4146058;28;20045;-62
2022/11/03 05:35:01;;;;;;;9.93;3.45;;;;;;;9.51;73.63;100707.53;4141482;28;20033;-62
2022/11/03 05:37:19;;;;;;;8.85;3.30;;;;;;;9.53;73.74;100692.84;4144006;28;20041;-62
2022/11/03 05:39:31;;;;;;;12.13;3.22;;;;;;;9.49;73.94;100693.63;4132977;28;20504;-63
2022/11/03 05:41:35;;;;;;;7.30;3.05;;;;;;;9.48;73.72;100691.91;4173347;28;20037;-62
2022/11/03 05:43:39;;;;;;;6.07;2.75;;;;;;;9.47;73.81;100685.81;4148880;28;20042;-62
2022/11/03 05:45:42;;;;;;;10.07;3.35;;;;;;;9.44;73.90;100684.00;4147565;28;20554;-63
2022/11/03 05:47:45;;;;;;;9.45;3.47;;;;;;;9.39;73.94;100679.59;4147206;28;20084;-63
2022/11/03 05:49:50;;;;;;;8.82;3.13;;;;;;;9.39;74.05;100674.41;4161578;28;20045;-62
2022/11/03 05:51:53;;;;;;;9.27;3.08;;;;;;;9.38;74.21;100670.91;4144336;28;20061;-62
2022/11/03 05:54:01;;;;;;;5.82;2.70;;;;;;;9.43;74.06;100658.03;4155914;28;20116;-62
2022/11/03 05:56:06;;;;;;;10.48;3.45;;;;;;;9.42;73.84;100653.72;4145258;28;20546;-62
2022/11/03 05:58:19;;;;;;;11.43;3.58;;;;;;;9.37;74.15;100645.78;4144055;28;20042;-62
2022/11/03 06:00:29;;;;;;;6.82;2.50;;;;;;;9.36;74.14;100641.47;4142601;28;20594;-62
2022/11/03 06:02:37;;;;;;;7.03;3.00;;;;;;;9.32;74.23;100644.84;4146803;28;20046;-64
2022/11/03 06:04:40;;;;;;;10.05;3.35;;;;;;;9.33;74.03;100643.09;4127390;28;20046;-62
2022/11/03 06:06:44;;;;;;;9.70;3.00;;;;;;;9.33;74.11;100641.41;4146521;28;20084;-63
2022/11/03 06:08:48;;;;;;;8.73;3.00;;;;;;;9.31;74.38;100637.88;4147407;28;20046;-63
2022/11/03 06:10:54;;;;;;;6.97;2.80;;;;;;;9.28;74.34;100635.22;4141947;28;20725;-63
2022/11/03 06:13:01;;;;;;;7.40;2.95;;;;;;;9.28;74.49;100642.16;4146051;28;20065;-62
2022/11/03 06:15:10;;;;;;;14.15;3.67;;;;;;;9.28;74.42;100649.94;4141568;28;20057;-63
2022/11/03 06:17:21;;;;;;;8.98;3.33;;;;;;;9.23;74.63;100642.03;4141717;28;20041;-63
2022/11/03 06:19:28;;;;;;;9.35;3.28;;;;;;;9.21;74.47;100648.91;4143032;28;20029;-63
2022/11/03 06:21:31;;;;;;;8.43;3.20;;;;;;;9.24;74.54;100646.38;4145039;28;20096;-63
2022/11/03 06:23:35;;;;;;;13.02;3.33;;;;;;;9.23;74.49;100644.63;4144981;28;20046;-64
2022/11/03 06:25:40;;;;;;;11.20;3.30;;;;;;;9.16;74.79;100651.38;4154117;28;20087;-63
2022/11/03 06:27:43;;;;;;;8.73;3.00;;;;;;;9.16;74.45;100654.00;4145752;28;20037;-63
2022/11/03 06:29:51;;;;;;;12.25;5.07;;;;;;;9.19;75.02;100642.81;4145105;28;20459;-62
2022/11/03 06:31:57;;;;;;;11.90;3.78;;;;;;;9.21;74.55;100642.00;4146088;28;20038;-63
2022/11/03 06:34:02;;;;;;;8.70;3.67;;;;;;;9.22;74.65;100632.50;4144485;28;20137;-63
2022/11/03 06:36:13;;;;;;;7.57;3.42;;;;;;;9.23;74.72;100634.25;4144598;28;20493;-64
2022/11/03 06:38:21;;;;;;;8.82;3.33;;;;;;;9.34;74.82;100637.09;4158348;28;20550;-63
2022/11/03 06:40:42;;;;;;;8.38;3.45;;;;;;;9.41;74.58;100623.41;4162050;28;20567;-63
2022/11/03 06:43:39;;;;;;;6.88;3.50;;;;;;;9.33;74.82;100619.75;4083692;28;20058;-62
2022/11/03 06:45:49;;;;;;;9.45;3.35;;;;;;;9.35;74.56;100611.16;4068190;29;20511;-63
2022/11/03 06:47:53;;;;;;;10.52;3.28;;;;;;;9.32;74.56;100611.09;4102459;28;20061;-63
2022/11/03 06:49:59;;;;;;;9.98;3.53;;;;;;;9.35;74.21;100613.75;4113377;28;20233;-63
2022/11/03 06:52:13;;;;;;;10.95;4.50;;;;;;;9.35;74.49;100612.91;4099327;28;20054;-63
2022/11/03 06:54:16;;;;;;;11.60;4.45;;;;;;;9.32;74.60;100616.28;4097068;29;20056;-64
2022/11/03 06:56:22;;;;;;;8.30;3.80;;;;;;;9.30;74.86;100615.41;4097246;29;20075;-63
2022/11/03 06:58:30;;;;;;;9.93;3.60;;;;;;;9.28;74.83;100604.09;4097468;29;20187;-63
2022/11/03 07:00:38;;;;;;;9.77;3.55;;;;;;;9.31;74.97;100598.97;4086986;29;20055;-63
2022/11/03 07:02:53;;;;;;;13.63;4.60;;;;;;;9.37;75.05;100595.63;4097415;29;20047;-63
2022/11/03 07:04:57;;;;;;;14.20;4.90;;;;;;;9.39;74.81;100588.78;4081332;29;20050;-63
2022/11/03 07:07:02;;;;;;;14.35;4.43;;;;;;;9.39;74.86;100583.59;4097260;29;20051;-63
2022/11/03 07:09:08;;;;;;;13.10;4.50;;;;;;;9.42;74.90;100583.66;4080905;29;20588;-63
2022/11/03 07:11:16;;;;;;;12.60;4.15;;;;;;;9.42;74.83;100589.69;4093846;29;20047;-63
2022/11/03 07:13:23;;;;;;;10.25;3.65;;;;;;;9.42;74.97;100588.84;4097028;28;20047;-63
2022/11/03 07:15:31;;;;;;;11.55;4.22;;;;;;;9.41;75.38;100597.47;4097007;29;20520;-63
2022/11/03 07:17:34;;;;;;;9.30;3.20;;;;;;;9.39;75.39;100594.84;4087489;28;20035;-63
2022/11/03 07:19:40;;;;;;;8.52;3.22;;;;;;;9.42;75.18;100594.91;4091496;28;20112;-63
2022/11/03 07:21:48;;;;;;;10.10;3.30;;;;;;;9.42;74.73;100594.91;4151514;28;20038;-63
2022/11/03 07:23:52;;;;;;;8.20;3.47;;;;;;;9.41;75.13;100595.72;4141101;28;20029;-64
2022/11/03 07:25:58;;;;;;;7.80;3.90;;;;;;;9.44;75.83;100588.00;4144773;28;20165;-63
2022/11/03 07:28:03;;;;;;;11.80;3.63;;;;;;;9.50;75.05;100589.00;4134918;28;20443;-63
2022/11/03 07:30:17;;;;;;;10.50;3.88;;;;;;;9.57;75.19;100586.53;4154599;28;20112;-64
2022/11/03 07:32:23;;;;;;;10.18;3.38;;;;;;;9.60;75.41;100584.00;4142211;28;20084;-63
2022/11/03 07:34:31;;;;;;;9.40;3.35;;;;;;;9.61;75.64;100577.97;4149566;28;20558;-63
2022/11/03 07:36:34;;;;;;;8.05;3.00;;;;;;;9.64;75.27;100579.78;4141057;28;20034;-63
2022/11/03 07:38:38;;;;;;;10.15;3.85;;;;;;;9.69;75.04;100572.94;4153973;28;20034;-63
2022/11/03 07:40:42;;;;;;;11.48;4.07;;;;;;;9.70;75.36;100569.50;4142766;28;20041;-63
2022/11/03 07:42:45;;;;;;;6.00;3.03;;;;;;;9.74;75.14;100566.13;4139885;28;20041;-63
2022/11/03 07:44:48;;;;;;;12.00;4.45;;;;;;;9.76;75.02;100568.75;4161353;28;20029;-63
2022/11/03 07:46:51;;;;;;;7.90;3.78;;;;;;;9.74;75.11;100560.06;4147382;28;20033;-63
2022/11/03 07:48:57;;;;;;;10.80;4.72;;;;;;;9.75;75.48;100556.59;4149752;28;20042;-62
2022/11/03 07:51:05;;;;;;;14.65;5.03;;;;;;;9.76;75.21;100559.22;4145363;28;20073;-63
2022/11/03 07:53:12;;;;;;;13.48;3.90;;;;;;;9.81;75.51;100540.25;4161225;28;20041;-63
2022/11/03 07:55:17;;;;;;;15.30;4.55;;;;;;;9.88;75.47;100532.59;4161237;28;20791;-63
2022/11/03 07:57:24;;;;;;;11.73;4.22;;;;;;;9.95;74.83;100529.28;4138067;28;20042;-63
2022/11/03 07:59:31;;;;;;;8.05;3.45;;;;;;;9.99;75.03;100514.63;4147756;28;20041;-63
2022/11/03 08:01:37;;;;;;;14.00;4.20;;;;;;;10.03;75.20;100510.34;4153297;28;20034;-63
2022/11/03 08:03:43;;;;;;;10.15;3.50;;;;;;;10.05;75.42;100504.34;4154440;28;20044;-62
2022/11/03 08:05:46;;;;;;;8.82;3.65;;;;;;;10.03;75.08;100511.25;4150565;28;20033;-63
2022/11/03 08:07:49;;;;;;;11.95;4.00;;;;;;;10.04;76.05;100512.97;4156271;28;20045;-63
2022/11/03 08:09:52;;;;;;;8.95;3.67;;;;;;;10.10;75.12;100501.81;4161967;28;20097;-63
2022/11/03 08:11:56;;;;;;;9.27;3.65;;;;;;;10.15;75.20;100500.19;4148786;28;20091;-63
2022/11/03 08:13:59;;;;;;;9.73;3.63;;;;;;;10.17;75.42;100495.03;4155484;28;20048;-63
2022/11/03 08:16:02;;;;;;;11.43;4.30;;;;;;;10.20;75.16;100488.13;4171252;28;20049;-63
2022/11/03 08:18:05;;;;;;;10.90;5.13;;;;;;;10.28;74.85;100480.47;4148951;28;20029;-63
2022/11/03 08:20:08;;;;;;;10.73;3.60;;;;;;;10.29;74.55;100479.63;4153611;28;20069;-63
2022/11/03 08:22:11;;;;;;;7.07;3.65;;;;;;;10.32;74.56;100482.25;4155440;28;20041;-63
2022/11/03 08:24:14;;;;;;;10.00;3.80;;;;;;;10.34;75.34;100474.50;4164844;28;20040;-63
2022/11/03 08:26:17;;;;;;;9.38;3.53;;;;;;;10.35;75.17;100471.94;4165913;28;20045;-63
2022/11/03 08:28:21;;;;;;;10.55;5.30;;;;;;;10.36;74.93;100485.81;4162473;28;20033;-63
2022/11/03 08:30:24;;;;;;;10.15;3.70;;;;;;;10.26;75.18;100487.34;4164297;28;20111;-63
2022/11/03 08:32:27;;;;;;;8.38;3.70;;;;;;;10.25;75.18;100488.19;4157108;28;20136;-63
2022/11/03 08:34:30;;;;;;;9.02;3.72;;;;;;;10.31;75.29;100490.91;4148381;28;20092;-63
2022/11/03 08:36:33;;;;;;;9.52;4.00;;;;;;;10.28;75.19;100480.47;4144552;28;20042;-63
2022/11/03 08:38:36;;;;;;;9.18;3.47;;;;;;;10.25;75.13;100490.81;4155027;28;20045;-63
2022/11/03 08:40:39;;;;;;;9.80;3.70;;;;;;;10.29;74.34;100487.41;4159771;28;20091;-63
2022/11/03 08:42:42;;;;;;;8.60;4.43;;;;;;;10.33;74.61;100483.16;4155794;28;20094;-63
2022/11/03 08:44:46;;;;;;;8.73;3.88;;;;;;;10.39;75.02;100489.31;4152915;28;20669;-63
2022/11/03 08:46:49;;;;;;;9.50;3.33;;;;;;;10.47;74.73;100485.13;4159223;28;20030;-62
2022/11/03 08:48:52;;;;;;;6.93;3.53;;;;;;;10.51;73.96;100479.97;4131702;28;20045;-63
2022/11/03 08:50:55;;;;;;;11.82;4.18;;;;;;;10.61;74.36;100479.25;4148195;28;20042;-63
2022/11/03 08:52:58;;;;;;;8.73;3.72;;;;;;;10.71;74.26;100473.34;4149398;28;20129;-63
2022/11/03 08:55:01;;;;;;;9.35;3.80;;;;;;;10.70;73.63;100468.13;4148978;28;20033;-63
2022/11/03 08:57:04;;;;;;;7.85;3.72;;;;;;;10.79;73.59;100463.03;4131959;28;20448;-63
2022/11/03 08:59:07;;;;;;;9.45;3.97;;;;;;;10.95;72.77;100456.28;4162221;28;20597;-63
2022/11/03 09:01:11;;;;;;;8.68;3.50;;;;;;;11.01;72.45;100456.41;4165539;28;20047;-63
2022/11/03 09:03:14;;;;;;;11.85;4.13;;;;;;;11.11;72.23;100453.06;4164062;28;20081;-63
2022/11/03 09:05:17;;;;;;;8.30;3.40;;;;;;;11.18;72.05;100456.59;4165336;28;20042;-63
2022/11/03 09:07:20;;;;;;;8.80;3.20;;;;;;;11.18;71.64;100460.06;4152673;28;20081;-63
2022/11/03 09:09:23;;;;;;;11.30;4.05;;;;;;;11.27;72.20;100461.03;4147765;28;20045;-63
2022/11/03 09:11:46;;;;;;;10.75;3.30;;;;;;;11.16;71.54;100460.91;4148679;28;20034;-63
2022/11/03 09:13:49;;;;;;;10.43;3.53;;;;;;;11.16;72.23;100459.16;4147192;28;20038;-63
2022/11/03 09:15:52;;;;;;;8.55;3.78;;;;;;;11.33;72.27;100450.66;4139582;28;20069;-63
2022/11/03 09:17:57;;;;;;;8.20;3.50;;;;;;;11.38;71.80;100446.41;4146696;28;20063;-62
2022/11/03 09:20:00;;;;;;;10.75;4.55;;;;;;;11.31;71.36;100447.19;4147662;28;20133;-62
2022/11/03 09:22:04;;;;;;;9.10;3.85;;;;;;;11.33;71.86;100448.06;4148621;28;20092;-62
2022/11/03 09:24:07;;;;;;;11.50;4.20;;;;;;;11.36;71.57;100442.94;4147576;28;20046;-62
2022/11/03 09:26:10;;;;;;;11.48;4.07;;;;;;;11.46;70.67;100444.75;4147625;28;20538;-62
2022/11/03 09:28:14;;;;;;;8.65;4.10;;;;;;;11.52;71.12;100430.91;4143397;28;20092;-62
2022/11/03 09:30:17;;;;;;;9.55;4.28;;;;;;;11.56;70.69;100426.63;4147494;28;20038;-62
2022/11/03 09:32:20;;;;;;;10.98;3.92;;;;;;;11.56;70.97;100413.59;4145334;28;20415;-62
2022/11/03 09:34:28;;;;;;;9.63;4.07;;;;;;;11.70;70.13;100409.41;4146408;28;20030;-62
2022/11/03 09:36:31;;;;;;;10.35;4.15;;;;;;;11.59;70.72;100406.69;4147730;28;20376;-63
2022/11/03 09:38:33;;;;;;;13.43;4.97;;;;;;;11.60;70.54;100407.56;4148524;28;20037;-63
2022/11/03 09:40:36;;;;;;;9.73;3.47;;;;;;;11.61;70.82;100402.38;4147397;28;20088;-63
2022/11/03 09:42:40;;;;;;;9.20;3.53;;;;;;;11.57;70.56;100392.78;4145288;28;20038;-63
2022/11/03 09:44:43;;;;;;;7.00;3.58;;;;;;;11.59;70.51;100392.78;4146503;28;20033;-63
2022/11/03 09:46:46;;;;;;;10.07;3.95;;;;;;;11.73;70.40;100391.19;4147134;28;20096;-62
2022/11/03 09:48:49;;;;;;;7.32;2.83;;;;;;;11.67;70.48;100384.19;4139202;28;20171;-62
2022/11/03 09:50:54;;;;;;;15.25;5.25;;;;;;;11.77;70.27;100382.56;4152165;28;20048;-62
2022/11/03 09:52:58;;;;;;;7.10;3.13;;;;;;;11.83;69.82;100379.97;4147116;28;20037;-62
2022/11/03 09:55:00;;;;;;;7.80;3.35;;;;;;;11.70;70.30;100383.34;4146784;28;20088;-63
2022/11/03 09:57:11;;;;;;;8.93;3.13;;;;;;;11.77;70.54;100379.94;4130855;28;20145;-62
2022/11/03 09:59:16;;;;;;;9.98;3.30;;;;;;;11.76;70.60;100370.38;4148332;28;20050;-62
2022/11/03 10:01:19;;;;;;;8.43;3.38;;;;;;;11.85;70.37;100366.97;4148358;28;20514;-63